EDT,Max TemperatureF,Mean TemperatureF,Min TemperatureF,Max Dew PointF,MeanDew PointF,Min DewpointF,Max Humidity, Mean Humidity, Min Humidity, Max Sea Level PressureIn, Mean Sea Level PressureIn, Min Sea Level PressureIn, Max VisibilityMiles, Mean VisibilityMiles, Min VisibilityMiles, Max Wind SpeedMPH, Mean Wind SpeedMPH, Max Gust SpeedMPH,PrecipitationIn, CloudCover, Events, WindDirDegrees
2011-9-1,76,64,51,55,53,50,100,73,46,30.28,30.23,30.17,10,10,7,13,2,20,0.00,3,,151
2011-9-2,75,62,48,56,53,46,100,77,53,30.21,30.13,30.00,10,9,2,13,2,22,0.00,1,Fog,172
2011-9-3,76,66,55,66,60,53,93,83,73,29.99,29.89,29.83,10,10,9,13,6,25,0.08,4,Rain,186
2011-9-4,80,70,60,69,64,59,100,86,71,29.91,29.84,29.78,10,9,5,18,5,24,0.00,5,Thunderstorm,169
2011-9-5,77,70,63,68,64,61,93,84,74,29.87,29.80,29.76,10,9,2,25,8,31,0.30,7,Rain,179
2011-9-6,72,65,58,61,57,53,100,77,53,30.25,29.99,29.84,10,9,2,17,8,22,0.18,7,Rain,348
2011-9-7,62,59,55,56,54,53,93,86,78,30.37,30.30,30.20,10,7,2,12,5,17,0.28,8,Rain,81
2011-9-8,69,62,55,61,57,54,100,87,73,30.18,30.08,29.95,10,7,0,8,4,22,0.14,7,Fog-Rain,18
2011-9-9,76,67,57,59,57,55,100,75,50,29.95,29.81,29.64,10,5,0,16,2,20,0.00,7,Fog,310
2011-9-10,69,57,45,54,44,40,86,61,35,30.11,29.95,29.79,10,10,10,16,8,26,0.00,2,,334
2011-9-11,69,55,40,53,48,39,100,76,52,30.17,30.10,29.96,10,9,3,20,4,26,0.00,2,Fog,186
2011-9-12,79,66,53,64,58,51,93,74,54,29.96,29.90,29.86,10,10,10,13,5,21,0.00,3,,206
2011-9-13,77,66,55,64,61,55,100,80,60,29.92,29.84,29.76,10,8,1,21,6,24,0.00,1,Fog,183
2011-9-14,78,69,60,67,63,55,93,79,64,29.96,29.86,29.76,10,9,5,14,6,17,0.00,6,,180
2011-9-15,66,58,50,63,58,47,93,86,78,29.95,29.87,29.82,10,5,0,15,4,23,0.96,7,Fog-Rain-Thunderstorm,331
2011-9-16,59,51,43,47,39,34,93,65,37,30.26,30.07,29.88,10,10,9,22,9,31,0.03,3,Rain,291
2011-9-17,66,52,38,44,39,36,93,64,34,30.48,30.39,30.28,10,10,10,18,5,23,0.00,2,,292
2011-9-18,68,54,39,47,43,37,93,67,40,30.56,30.48,30.42,10,10,10,9,1,9,0.00,5,Fog,44
2011-9-19,68,55,41,49,44,39,100,71,42,30.40,30.29,30.13,10,8,0,9,1,18,0.00,3,Fog,210
2011-9-20,63,53,42,56,51,42,100,86,72,30.12,30.06,30.01,10,9,2,15,3,21,T,5,Rain,209
2011-9-21,74,60,46,56,52,45,100,73,46,30.25,30.20,30.12,10,7,0,12,3,24,0.00,3,Fog,201
2011-9-22,66,62,57,64,61,57,100,94,87,30.23,30.17,30.12,10,4,0,10,4,24,0.02,8,Fog-Rain,163
2011-9-23,76,69,62,66,64,62,100,85,69,30.17,30.13,30.10,10,5,0,8,4,23,0.01,7,Fog-Rain,181
2011-9-24,71,67,63,67,65,63,100,92,84,30.11,30.04,30.00,10,3,1,9,4,25,0.56,8,Rain,47
2011-9-25,81,71,60,67,64,60,100,79,58,30.07,30.02,29.97,10,9,3,13,2,18,0.00,6,,286
2011-9-26,80,68,56,62,58,55,93,68,42,30.00,29.95,29.89,10,10,10,17,4,22,0.00,2,,301
2011-9-27,76,63,50,56,52,48,100,72,43,30.15,30.04,29.96,10,10,8,13,4,15,0.00,2,,63
2011-9-28,66,60,53,55,52,48,87,77,67,30.20,30.15,30.08,10,10,10,14,5,18,0.00,6,,171
2011-9-29,66,61,55,61,56,53,97,85,73,30.08,29.81,29.53,10,9,2,17,5,22,0.23,8,Rain,135
2011-9-30,70,64,58,61,58,55,100,81,61,29.75,29.64,29.52,10,10,9,20,9,23,0.00,4,,181